sensor_id;sensor_type;location;lat;lon;timestamp;temperature;humidity
6666;DHT22;3369;49.906;8.598;2023-05-23T00:00:25;16.90;99.90
6666;DHT22;3369;49.906;8.598;2023-05-23T00:02:51;16.80;99.90
6666;DHT22;3369;49.906;8.598;2023-05-23T00:05:17;16.90;99.90
6666;DHT22;3369;49.906;8.598;2023-05-23T00:07:46;16.80;99.90
6666;DHT22;3369;49.906;8.598;2023-05-23T00:10:12;16.80;99.90
6666;DHT22;3369;49.906;8.598;2023-05-23T00:12:38;16.80;99.90
6666;DHT22;3369;49.906;8.598;2023-05-23T00:15:07;16.80;99.90
6666;DHT22;3369;49.906;8.598;2023-05-23T00:17:34;16.70;99.90
6666;DHT22;3369;49.906;8.598;2023-05-23T00:20:04;16.70;99.90
6666;DHT22;3369;49.906;8.598;2023-05-23T00:22:30;16.70;99.90
6666;DHT22;3369;49.906;8.598;2023-05-23T00:24:56;16.70;99.90
6666;DHT22;3369;49.906;8.598;2023-05-23T00:27:22;16.70;99.90
6666;DHT22;3369;49.906;8.598;2023-05-23T00:29:48;16.70;99.90
6666;DHT22;3369;49.906;8.598;2023-05-23T00:32:13;16.60;99.90
6666;DHT22;3369;49.906;8.598;2023-05-23T00:34:39;16.60;99.90
6666;DHT22;3369;49.906;8.598;2023-05-23T00:37:05;16.60;99.90
6666;DHT22;3369;49.906;8.598;2023-05-23T00:39:31;16.60;99.90
6666;DHT22;3369;49.906;8.598;2023-05-23T00:41:56;16.60;99.90
6666;DHT22;3369;49.906;8.598;2023-05-23T00:44:22;16.50;99.90
6666;DHT22;3369;49.906;8.598;2023-05-23T00:46:54;16.50;99.90
6666;DHT22;3369;49.906;8.598;2023-05-23T00:49:20;16.50;99.90
6666;DHT22;3369;49.906;8.598;2023-05-23T00:51:47;16.50;99.90
6666;DHT22;3369;49.906;8.598;2023-05-23T00:54:16;16.50;99.90
6666;DHT22;3369;49.906;8.598;2023-05-23T00:56:43;16.50;99.90
6666;DHT22;3369;49.906;8.598;2023-05-23T00:59:09;16.40;99.90
6666;DHT22;3369;49.906;8.598;2023-05-23T01:01:34;16.40;99.90
6666;DHT22;3369;49.906;8.598;2023-05-23T01:04:02;16.40;99.90
6666;DHT22;3369;49.906;8.598;2023-05-23T01:06:29;16.30;99.90
6666;DHT22;3369;49.906;8.598;2023-05-23T01:29:53;16.00;99.90
6666;DHT22;3369;49.906;8.598;2023-05-23T01:32:22;16.00;99.90
6666;DHT22;3369;49.906;8.598;2023-05-23T01:34:51;16.00;99.90
6666;DHT22;3369;49.906;8.598;2023-05-23T01:37:17;15.90;99.90
6666;DHT22;3369;49.906;8.598;2023-05-23T01:39:44;15.90;99.90
6666;DHT22;3369;49.906;8.598;2023-05-23T01:42:10;15.90;99.90
6666;DHT22;3369;49.906;8.598;2023-05-23T01:44:37;15.90;99.90
6666;DHT22;3369;49.906;8.598;2023-05-23T01:47:03;15.90;99.90
6666;DHT22;3369;49.906;8.598;2023-05-23T01:49:32;15.90;99.90
6666;DHT22;3369;49.906;8.598;2023-05-23T01:51:59;15.90;99.90
6666;DHT22;3369;49.906;8.598;2023-05-23T01:54:27;15.90;99.90
6666;DHT22;3369;49.906;8.598;2023-05-23T01:56:57;15.90;99.90
6666;DHT22;3369;49.906;8.598;2023-05-23T01:59:23;15.80;99.90
6666;DHT22;3369;49.906;8.598;2023-05-23T02:01:49;15.80;99.90
6666;DHT22;3369;49.906;8.598;2023-05-23T02:04:15;15.80;99.90
6666;DHT22;3369;49.906;8.598;2023-05-23T02:06:40;15.80;99.90
6666;DHT22;3369;49.906;8.598;2023-05-23T02:09:07;15.70;99.90
6666;DHT22;3369;49.906;8.598;2023-05-23T02:11:33;15.70;99.90
6666;DHT22;3369;49.906;8.598;2023-05-23T02:13:58;15.70;99.90
6666;DHT22;3369;49.906;8.598;2023-05-23T02:16:24;15.60;99.90
6666;DHT22;3369;49.906;8.598;2023-05-23T02:18:50;15.60;99.90
6666;DHT22;3369;49.906;8.598;2023-05-23T02:21:17;15.60;99.90
6666;DHT22;3369;49.906;8.598;2023-05-23T02:23:43;15.60;99.90
6666;DHT22;3369;49.906;8.598;2023-05-23T02:26:09;15.50;99.90
6666;DHT22;3369;49.906;8.598;2023-05-23T02:28:34;15.50;99.90
6666;DHT22;3369;49.906;8.598;2023-05-23T02:31:00;15.60;99.90
6666;DHT22;3369;49.906;8.598;2023-05-23T02:33:26;15.50;99.90
6666;DHT22;3369;49.906;8.598;2023-05-23T02:35:52;15.50;99.90
6666;DHT22;3369;49.906;8.598;2023-05-23T02:38:19;15.60;99.90
6666;DHT22;3369;49.906;8.598;2023-05-23T02:40:45;15.50;99.90
6666;DHT22;3369;49.906;8.598;2023-05-23T02:43:11;15.50;99.90
6666;DHT22;3369;49.906;8.598;2023-05-23T02:45:36;15.50;99.90
6666;DHT22;3369;49.906;8.598;2023-05-23T02:48:02;15.60;99.90
6666;DHT22;3369;49.906;8.598;2023-05-23T02:50:27;15.60;99.90
6666;DHT22;3369;49.906;8.598;2023-05-23T02:52:53;15.60;99.90
6666;DHT22;3369;49.906;8.598;2023-05-23T02:55:19;15.60;99.90
6666;DHT22;3369;49.906;8.598;2023-05-23T02:57:44;15.60;99.90
6666;DHT22;3369;49.906;8.598;2023-05-23T03:00:10;15.50;99.90
6666;DHT22;3369;49.906;8.598;2023-05-23T03:02:36;15.50;99.90
6666;DHT22;3369;49.906;8.598;2023-05-23T03:05:02;15.50;99.90
6666;DHT22;3369;49.906;8.598;2023-05-23T03:07:28;15.50;99.90
6666;DHT22;3369;49.906;8.598;2023-05-23T03:09:55;15.50;99.90
6666;DHT22;3369;49.906;8.598;2023-05-23T03:12:20;15.50;99.90
6666;DHT22;3369;49.906;8.598;2023-05-23T03:14:46;15.50;99.90
6666;DHT22;3369;49.906;8.598;2023-05-23T03:17:12;15.50;99.90
6666;DHT22;3369;49.906;8.598;2023-05-23T03:19:38;15.50;99.90
6666;DHT22;3369;49.906;8.598;2023-05-23T03:22:04;15.50;99.90
6666;DHT22;3369;49.906;8.598;2023-05-23T03:24:30;15.50;99.90
6666;DHT22;3369;49.906;8.598;2023-05-23T03:26:56;15.40;99.90
6666;DHT22;3369;49.906;8.598;2023-05-23T03:29:21;15.40;99.90
6666;DHT22;3369;49.906;8.598;2023-05-23T03:31:47;15.50;99.90
6666;DHT22;3369;49.906;8.598;2023-05-23T03:34:13;15.40;99.90
6666;DHT22;3369;49.906;8.598;2023-05-23T03:36:38;15.40;99.90
6666;DHT22;3369;49.906;8.598;2023-05-23T03:39:05;15.40;99.90
6666;DHT22;3369;49.906;8.598;2023-05-23T03:41:30;15.40;99.90
6666;DHT22;3369;49.906;8.598;2023-05-23T03:43:56;15.40;99.90
6666;DHT22;3369;49.906;8.598;2023-05-23T03:46:21;15.40;99.90
6666;DHT22;3369;49.906;8.598;2023-05-23T03:48:47;15.40;99.90
6666;DHT22;3369;49.906;8.598;2023-05-23T03:51:13;15.40;99.90
6666;DHT22;3369;49.906;8.598;2023-05-23T03:53:39;15.40;99.90
6666;DHT22;3369;49.906;8.598;2023-05-23T03:56:05;15.40;99.90
6666;DHT22;3369;49.906;8.598;2023-05-23T03:58:30;15.30;99.90
6666;DHT22;3369;49.906;8.598;2023-05-23T04:00:56;15.30;99.90
6666;DHT22;3369;49.906;8.598;2023-05-23T04:03:22;15.30;99.90
6666;DHT22;3369;49.906;8.598;2023-05-23T04:05:48;15.20;99.90
6666;DHT22;3369;49.906;8.598;2023-05-23T04:08:14;15.20;99.90
6666;DHT22;3369;49.906;8.598;2023-05-23T04:10:40;15.20;99.90
6666;DHT22;3369;49.906;8.598;2023-05-23T04:13:05;15.10;99.90
6666;DHT22;3369;49.906;8.598;2023-05-23T04:15:31;15.10;99.90
6666;DHT22;3369;49.906;8.598;2023-05-23T04:17:59;15.10;99.90
6666;DHT22;3369;49.906;8.598;2023-05-23T04:20:24;15.00;99.90
6666;DHT22;3369;49.906;8.598;2023-05-23T04:22:50;15.00;99.90
6666;DHT22;3369;49.906;8.598;2023-05-23T04:25:15;15.00;99.90
6666;DHT22;3369;49.906;8.598;2023-05-23T04:27:43;15.10;99.90
6666;DHT22;3369;49.906;8.598;2023-05-23T04:30:09;15.10;99.90
6666;DHT22;3369;49.906;8.598;2023-05-23T04:32:36;15.10;99.90
6666;DHT22;3369;49.906;8.598;2023-05-23T04:35:02;15.20;99.90
6666;DHT22;3369;49.906;8.598;2023-05-23T04:37:28;15.20;99.90
6666;DHT22;3369;49.906;8.598;2023-05-23T04:39:57;15.20;99.90
6666;DHT22;3369;49.906;8.598;2023-05-23T04:42:24;15.20;99.90
6666;DHT22;3369;49.906;8.598;2023-05-23T04:44:50;15.20;99.90
6666;DHT22;3369;49.906;8.598;2023-05-23T04:47:17;15.20;99.90
6666;DHT22;3369;49.906;8.598;2023-05-23T04:49:43;15.20;99.90
6666;DHT22;3369;49.906;8.598;2023-05-23T04:52:09;15.20;99.90
6666;DHT22;3369;49.906;8.598;2023-05-23T04:54:35;15.20;99.90
6666;DHT22;3369;49.906;8.598;2023-05-23T04:57:01;15.30;99.90
6666;DHT22;3369;49.906;8.598;2023-05-23T04:59:27;15.30;99.90
6666;DHT22;3369;49.906;8.598;2023-05-23T05:01:53;15.40;99.90
6666;DHT22;3369;49.906;8.598;2023-05-23T05:04:18;15.40;99.90
6666;DHT22;3369;49.906;8.598;2023-05-23T05:06:44;15.40;99.90
6666;DHT22;3369;49.906;8.598;2023-05-23T05:09:12;15.40;99.90
6666;DHT22;3369;49.906;8.598;2023-05-23T05:11:38;15.40;99.90
6666;DHT22;3369;49.906;8.598;2023-05-23T05:14:03;15.40;99.90
6666;DHT22;3369;49.906;8.598;2023-05-23T05:16:29;15.50;99.90
6666;DHT22;3369;49.906;8.598;2023-05-23T05:18:55;15.50;99.90
6666;DHT22;3369;49.906;8.598;2023-05-23T05:21:21;15.50;99.90
6666;DHT22;3369;49.906;8.598;2023-05-23T05:23:47;15.50;99.90
6666;DHT22;3369;49.906;8.598;2023-05-23T05:26:12;15.40;99.90
6666;DHT22;3369;49.906;8.598;2023-05-23T05:28:38;15.40;99.90
6666;DHT22;3369;49.906;8.598;2023-05-23T05:31:03;15.40;99.90
6666;DHT22;3369;49.906;8.598;2023-05-23T05:33:29;15.40;99.90
6666;DHT22;3369;49.906;8.598;2023-05-23T05:36:04;15.40;99.90
6666;DHT22;3369;49.906;8.598;2023-05-23T05:38:30;15.40;99.90
6666;DHT22;3369;49.906;8.598;2023-05-23T05:40:56;15.40;99.90
6666;DHT22;3369;49.906;8.598;2023-05-23T05:43:22;15.30;99.90
6666;DHT22;3369;49.906;8.598;2023-05-23T05:45:48;15.40;99.90
6666;DHT22;3369;49.906;8.598;2023-05-23T05:48:13;15.40;99.90
6666;DHT22;3369;49.906;8.598;2023-05-23T05:50:39;15.40;99.90
6666;DHT22;3369;49.906;8.598;2023-05-23T05:53:05;15.40;99.90
6666;DHT22;3369;49.906;8.598;2023-05-23T05:55:32;15.40;99.90
6666;DHT22;3369;49.906;8.598;2023-05-23T05:57:58;15.50;99.90
6666;DHT22;3369;49.906;8.598;2023-05-23T06:00:24;15.70;99.90
6666;DHT22;3369;49.906;8.598;2023-05-23T06:02:49;15.90;99.90
6666;DHT22;3369;49.906;8.598;2023-05-23T06:05:21;16.00;99.90
6666;DHT22;3369;49.906;8.598;2023-05-23T06:07:48;16.10;99.90
6666;DHT22;3369;49.906;8.598;2023-05-23T06:10:14;16.10;99.90
6666;DHT22;3369;49.906;8.598;2023-05-23T06:12:40;16.00;99.90
6666;DHT22;3369;49.906;8.598;2023-05-23T06:15:07;16.00;99.90
6666;DHT22;3369;49.906;8.598;2023-05-23T06:17:34;15.90;99.90
6666;DHT22;3369;49.906;8.598;2023-05-23T06:19:59;15.90;99.90
6666;DHT22;3369;49.906;8.598;2023-05-23T06:22:25;15.90;99.90
6666;DHT22;3369;49.906;8.598;2023-05-23T06:24:51;15.90;99.90
6666;DHT22;3369;49.906;8.598;2023-05-23T06:27:16;16.10;99.90
6666;DHT22;3369;49.906;8.598;2023-05-23T06:29:42;16.40;99.90
6666;DHT22;3369;49.906;8.598;2023-05-23T06:32:08;16.70;99.90
6666;DHT22;3369;49.906;8.598;2023-05-23T06:34:33;16.90;99.90
6666;DHT22;3369;49.906;8.598;2023-05-23T06:36:59;16.90;99.90
6666;DHT22;3369;49.906;8.598;2023-05-23T06:39:24;16.90;99.90
6666;DHT22;3369;49.906;8.598;2023-05-23T06:41:50;16.90;99.90
6666;DHT22;3369;49.906;8.598;2023-05-23T06:44:16;16.80;99.90
6666;DHT22;3369;49.906;8.598;2023-05-23T06:46:44;16.80;99.90
6666;DHT22;3369;49.906;8.598;2023-05-23T06:49:09;16.70;99.90
6666;DHT22;3369;49.906;8.598;2023-05-23T07:13:06;16.00;99.90
6666;DHT22;3369;49.906;8.598;2023-05-23T07:15:32;16.10;99.90
6666;DHT22;3369;49.906;8.598;2023-05-23T07:17:58;16.10;99.90
6666;DHT22;3369;49.906;8.598;2023-05-23T07:20:23;16.10;99.90
6666;DHT22;3369;49.906;8.598;2023-05-23T07:22:49;16.20;99.90
6666;DHT22;3369;49.906;8.598;2023-05-23T07:25:16;16.20;99.90
6666;DHT22;3369;49.906;8.598;2023-05-23T07:27:41;16.30;99.90
6666;DHT22;3369;49.906;8.598;2023-05-23T07:30:08;16.40;99.90
6666;DHT22;3369;49.906;8.598;2023-05-23T07:32:34;16.50;99.90
6666;DHT22;3369;49.906;8.598;2023-05-23T07:35:00;16.60;99.90
6666;DHT22;3369;49.906;8.598;2023-05-23T07:37:26;16.60;99.90
6666;DHT22;3369;49.906;8.598;2023-05-23T07:39:52;16.60;99.90
6666;DHT22;3369;49.906;8.598;2023-05-23T07:42:18;16.70;99.90
6666;DHT22;3369;49.906;8.598;2023-05-23T07:44:44;16.70;99.90
6666;DHT22;3369;49.906;8.598;2023-05-23T07:47:09;16.80;99.90
6666;DHT22;3369;49.906;8.598;2023-05-23T07:49:35;16.90;99.90
6666;DHT22;3369;49.906;8.598;2023-05-23T07:52:01;17.20;99.90
6666;DHT22;3369;49.906;8.598;2023-05-23T07:54:26;17.50;99.90
6666;DHT22;3369;49.906;8.598;2023-05-23T07:56:52;17.70;99.90
6666;DHT22;3369;49.906;8.598;2023-05-23T07:59:18;17.90;99.90
6666;DHT22;3369;49.906;8.598;2023-05-23T08:01:45;17.90;99.90
6666;DHT22;3369;49.906;8.598;2023-05-23T08:04:10;18.00;99.90
6666;DHT22;3369;49.906;8.598;2023-05-23T08:06:36;18.10;99.90
6666;DHT22;3369;49.906;8.598;2023-05-23T08:09:02;18.20;99.90
6666;DHT22;3369;49.906;8.598;2023-05-23T08:11:30;18.40;99.90
6666;DHT22;3369;49.906;8.598;2023-05-23T08:13:56;18.40;99.90
6666;DHT22;3369;49.906;8.598;2023-05-23T08:16:24;18.40;99.90
6666;DHT22;3369;49.906;8.598;2023-05-23T08:18:50;18.50;99.90
6666;DHT22;3369;49.906;8.598;2023-05-23T08:21:16;18.50;99.90
6666;DHT22;3369;49.906;8.598;2023-05-23T08:23:41;18.70;99.90
6666;DHT22;3369;49.906;8.598;2023-05-23T08:26:07;18.80;99.90
6666;DHT22;3369;49.906;8.598;2023-05-23T08:28:33;18.80;99.90
6666;DHT22;3369;49.906;8.598;2023-05-23T08:30:59;18.80;99.90
6666;DHT22;3369;49.906;8.598;2023-05-23T08:33:25;18.70;99.90
6666;DHT22;3369;49.906;8.598;2023-05-23T08:35:51;18.70;99.90
6666;DHT22;3369;49.906;8.598;2023-05-23T08:38:16;18.70;99.90
6666;DHT22;3369;49.906;8.598;2023-05-23T08:40:49;18.60;99.90
6666;DHT22;3369;49.906;8.598;2023-05-23T08:43:18;18.50;99.90
6666;DHT22;3369;49.906;8.598;2023-05-23T08:45:44;18.50;99.90
6666;DHT22;3369;49.906;8.598;2023-05-23T08:48:12;18.60;99.90
6666;DHT22;3369;49.906;8.598;2023-05-23T08:50:42;18.70;99.90
6666;DHT22;3369;49.906;8.598;2023-05-23T08:53:08;18.80;99.90
6666;DHT22;3369;49.906;8.598;2023-05-23T08:55:36;18.80;99.90
6666;DHT22;3369;49.906;8.598;2023-05-23T08:58:02;18.80;99.90
6666;DHT22;3369;49.906;8.598;2023-05-23T09:00:28;18.90;99.90
6666;DHT22;3369;49.906;8.598;2023-05-23T09:02:54;18.80;99.90
6666;DHT22;3369;49.906;8.598;2023-05-23T09:05:21;18.90;99.90
6666;DHT22;3369;49.906;8.598;2023-05-23T09:07:47;18.90;99.90
6666;DHT22;3369;49.906;8.598;2023-05-23T09:10:14;18.90;99.90
6666;DHT22;3369;49.906;8.598;2023-05-23T09:12:44;18.80;99.90
6666;DHT22;3369;49.906;8.598;2023-05-23T09:15:10;18.80;99.90
6666;DHT22;3369;49.906;8.598;2023-05-23T09:17:36;18.80;99.90
6666;DHT22;3369;49.906;8.598;2023-05-23T09:20:16;18.80;99.90
6666;DHT22;3369;49.906;8.598;2023-05-23T09:22:46;18.90;99.90
6666;DHT22;3369;49.906;8.598;2023-05-23T09:25:12;18.90;99.90
6666;DHT22;3369;49.906;8.598;2023-05-23T09:27:38;19.00;99.90
6666;DHT22;3369;49.906;8.598;2023-05-23T09:30:08;19.00;99.90
6666;DHT22;3369;49.906;8.598;2023-05-23T09:32:35;19.00;99.90
6666;DHT22;3369;49.906;8.598;2023-05-23T09:35:03;18.90;99.90
6666;DHT22;3369;49.906;8.598;2023-05-23T09:37:35;18.90;99.90
6666;DHT22;3369;49.906;8.598;2023-05-23T09:40:07;18.90;99.90
6666;DHT22;3369;49.906;8.598;2023-05-23T09:42:35;18.80;99.90
6666;DHT22;3369;49.906;8.598;2023-05-23T09:45:02;18.80;99.90
6666;DHT22;3369;49.906;8.598;2023-05-23T09:47:28;18.70;99.90
6666;DHT22;3369;49.906;8.598;2023-05-23T09:49:53;18.60;99.90
6666;DHT22;3369;49.906;8.598;2023-05-23T09:52:19;18.50;99.90
6666;DHT22;3369;49.906;8.598;2023-05-23T09:54:45;18.30;99.90
6666;DHT22;3369;49.906;8.598;2023-05-23T09:57:13;18.30;99.90
6666;DHT22;3369;49.906;8.598;2023-05-23T09:59:41;18.20;99.90
6666;DHT22;3369;49.906;8.598;2023-05-23T10:02:10;18.10;99.90
6666;DHT22;3369;49.906;8.598;2023-05-23T10:04:38;18.10;99.90
6666;DHT22;3369;49.906;8.598;2023-05-23T10:07:11;18.00;99.90
6666;DHT22;3369;49.906;8.598;2023-05-23T10:09:39;18.00;99.90
6666;DHT22;3369;49.906;8.598;2023-05-23T10:15:02;18.00;99.90
6666;DHT22;3369;49.906;8.598;2023-05-23T10:18:11;18.10;99.90
6666;DHT22;3369;49.906;8.598;2023-05-23T10:20:39;18.20;99.90
6666;DHT22;3369;49.906;8.598;2023-05-23T10:23:07;18.40;99.90
6666;DHT22;3369;49.906;8.598;2023-05-23T10:25:33;18.50;99.90
6666;DHT22;3369;49.906;8.598;2023-05-23T10:28:01;18.70;99.90
6666;DHT22;3369;49.906;8.598;2023-05-23T10:30:28;18.90;99.90
6666;DHT22;3369;49.906;8.598;2023-05-23T10:32:55;19.20;99.90
6666;DHT22;3369;49.906;8.598;2023-05-23T10:36:03;19.40;99.90
6666;DHT22;3369;49.906;8.598;2023-05-23T10:38:45;19.80;99.90
6666;DHT22;3369;49.906;8.598;2023-05-23T10:41:26;20.20;99.90
6666;DHT22;3369;49.906;8.598;2023-05-23T10:44:01;20.30;99.90
6666;DHT22;3369;49.906;8.598;2023-05-23T10:46:59;20.20;99.90
6666;DHT22;3369;49.906;8.598;2023-05-23T10:52:07;19.70;99.90
6666;DHT22;3369;49.906;8.598;2023-05-23T10:54:49;19.50;99.90
6666;DHT22;3369;49.906;8.598;2023-05-23T10:57:18;19.40;99.90
6666;DHT22;3369;49.906;8.598;2023-05-23T10:59:49;19.40;99.90
6666;DHT22;3369;49.906;8.598;2023-05-23T11:02:19;19.40;99.90
6666;DHT22;3369;49.906;8.598;2023-05-23T11:05:21;19.40;99.90
6666;DHT22;3369;49.906;8.598;2023-05-23T11:08:07;19.50;99.90
6666;DHT22;3369;49.906;8.598;2023-05-23T11:11:00;19.60;99.90
6666;DHT22;3369;49.906;8.598;2023-05-23T11:16:40;19.60;99.90
6666;DHT22;3369;49.906;8.598;2023-05-23T11:21:45;19.80;99.90
6666;DHT22;3369;49.906;8.598;2023-05-23T11:24:11;20.00;99.90
6666;DHT22;3369;49.906;8.598;2023-05-23T11:26:37;20.30;99.90
6666;DHT22;3369;49.906;8.598;2023-05-23T11:29:07;20.50;99.90
6666;DHT22;3369;49.906;8.598;2023-05-23T11:31:37;20.70;99.90
6666;DHT22;3369;49.906;8.598;2023-05-23T11:34:05;21.00;99.90
6666;DHT22;3369;49.906;8.598;2023-05-23T11:36:31;21.40;99.90
6666;DHT22;3369;49.906;8.598;2023-05-23T11:39:01;21.60;99.90
6666;DHT22;3369;49.906;8.598;2023-05-23T11:41:30;21.60;99.90
6666;DHT22;3369;49.906;8.598;2023-05-23T11:43:57;21.50;99.90
6666;DHT22;3369;49.906;8.598;2023-05-23T11:46:26;21.50;99.90
6666;DHT22;3369;49.906;8.598;2023-05-23T11:48:51;21.50;99.90
6666;DHT22;3369;49.906;8.598;2023-05-23T11:51:17;21.40;99.90
6666;DHT22;3369;49.906;8.598;2023-05-23T11:53:44;21.40;99.90
6666;DHT22;3369;49.906;8.598;2023-05-23T11:56:10;21.30;99.90
6666;DHT22;3369;49.906;8.598;2023-05-23T11:58:38;21.20;99.90
6666;DHT22;3369;49.906;8.598;2023-05-23T12:01:08;21.10;99.90
6666;DHT22;3369;49.906;8.598;2023-05-23T12:03:44;21.10;99.90
6666;DHT22;3369;49.906;8.598;2023-05-23T12:06:13;21.00;99.90
6666;DHT22;3369;49.906;8.598;2023-05-23T12:08:39;20.90;99.90
6666;DHT22;3369;49.906;8.598;2023-05-23T12:11:05;20.80;99.90
6666;DHT22;3369;49.906;8.598;2023-05-23T12:13:31;20.70;99.90
6666;DHT22;3369;49.906;8.598;2023-05-23T12:15:59;20.70;99.90
6666;DHT22;3369;49.906;8.598;2023-05-23T12:18:30;20.60;99.90
6666;DHT22;3369;49.906;8.598;2023-05-23T12:21:03;20.60;99.90
6666;DHT22;3369;49.906;8.598;2023-05-23T12:23:30;20.60;99.90
6666;DHT22;3369;49.906;8.598;2023-05-23T12:25:56;20.70;99.90
6666;DHT22;3369;49.906;8.598;2023-05-23T12:28:42;20.70;99.90
6666;DHT22;3369;49.906;8.598;2023-05-23T12:31:20;20.60;99.90
6666;DHT22;3369;49.906;8.598;2023-05-23T12:33:51;20.50;99.90
6666;DHT22;3369;49.906;8.598;2023-05-23T12:36:25;20.30;99.90
6666;DHT22;3369;49.906;8.598;2023-05-23T12:38:52;20.30;99.90
6666;DHT22;3369;49.906;8.598;2023-05-23T12:41:19;20.30;99.90
6666;DHT22;3369;49.906;8.598;2023-05-23T12:43:52;20.40;99.90
6666;DHT22;3369;49.906;8.598;2023-05-23T12:46:19;20.40;99.90
6666;DHT22;3369;49.906;8.598;2023-05-23T12:48:45;20.50;99.90
6666;DHT22;3369;49.906;8.598;2023-05-23T12:51:12;20.50;99.90
6666;DHT22;3369;49.906;8.598;2023-05-23T12:53:38;20.60;99.90
6666;DHT22;3369;49.906;8.598;2023-05-23T12:56:04;20.50;99.90
6666;DHT22;3369;49.906;8.598;2023-05-23T12:58:30;20.50;99.90
6666;DHT22;3369;49.906;8.598;2023-05-23T13:00:57;20.40;99.90
6666;DHT22;3369;49.906;8.598;2023-05-23T13:03:23;20.30;99.90
6666;DHT22;3369;49.906;8.598;2023-05-23T13:05:49;20.10;99.90
6666;DHT22;3369;49.906;8.598;2023-05-23T13:29:55;19.50;99.90
6666;DHT22;3369;49.906;8.598;2023-05-23T13:32:21;19.50;99.90
6666;DHT22;3369;49.906;8.598;2023-05-23T13:34:46;19.40;99.90
6666;DHT22;3369;49.906;8.598;2023-05-23T13:37:12;19.50;99.90
6666;DHT22;3369;49.906;8.598;2023-05-23T13:39:38;19.60;99.90
6666;DHT22;3369;49.906;8.598;2023-05-23T13:42:03;19.60;99.90
6666;DHT22;3369;49.906;8.598;2023-05-23T13:44:29;19.70;99.90
6666;DHT22;3369;49.906;8.598;2023-05-23T13:46:57;19.80;99.90
6666;DHT22;3369;49.906;8.598;2023-05-23T13:49:22;19.80;99.90
6666;DHT22;3369;49.906;8.598;2023-05-23T13:51:48;19.90;99.90
6666;DHT22;3369;49.906;8.598;2023-05-23T13:54:14;20.00;99.90
6666;DHT22;3369;49.906;8.598;2023-05-23T13:56:40;20.10;99.90
6666;DHT22;3369;49.906;8.598;2023-05-23T13:59:06;20.20;99.90
6666;DHT22;3369;49.906;8.598;2023-05-23T14:01:31;20.40;99.90
6666;DHT22;3369;49.906;8.598;2023-05-23T14:03:57;20.40;99.90
6666;DHT22;3369;49.906;8.598;2023-05-23T14:06:23;20.40;99.90
6666;DHT22;3369;49.906;8.598;2023-05-23T14:08:48;20.50;99.90
6666;DHT22;3369;49.906;8.598;2023-05-23T14:11:14;20.40;99.90
6666;DHT22;3369;49.906;8.598;2023-05-23T14:13:40;20.30;99.90
6666;DHT22;3369;49.906;8.598;2023-05-23T14:16:05;20.30;99.90
6666;DHT22;3369;49.906;8.598;2023-05-23T14:18:31;20.30;99.90
6666;DHT22;3369;49.906;8.598;2023-05-23T14:20:57;20.40;99.90
6666;DHT22;3369;49.906;8.598;2023-05-23T14:23:22;20.60;99.90
6666;DHT22;3369;49.906;8.598;2023-05-23T14:25:48;20.70;99.90
6666;DHT22;3369;49.906;8.598;2023-05-23T14:28:14;20.70;99.90
6666;DHT22;3369;49.906;8.598;2023-05-23T14:30:40;20.60;99.90
6666;DHT22;3369;49.906;8.598;2023-05-23T14:33:05;20.60;99.90
6666;DHT22;3369;49.906;8.598;2023-05-23T14:35:31;20.50;99.90
6666;DHT22;3369;49.906;8.598;2023-05-23T14:37:56;20.50;99.90
6666;DHT22;3369;49.906;8.598;2023-05-23T14:40:22;20.40;99.90
6666;DHT22;3369;49.906;8.598;2023-05-23T14:42:48;20.40;99.90
6666;DHT22;3369;49.906;8.598;2023-05-23T14:45:13;20.30;99.90
6666;DHT22;3369;49.906;8.598;2023-05-23T14:47:39;20.20;99.90
6666;DHT22;3369;49.906;8.598;2023-05-23T14:50:05;20.10;99.90
6666;DHT22;3369;49.906;8.598;2023-05-23T14:52:31;20.10;99.90
6666;DHT22;3369;49.906;8.598;2023-05-23T14:54:56;20.00;99.90
6666;DHT22;3369;49.906;8.598;2023-05-23T14:57:23;19.90;99.90
6666;DHT22;3369;49.906;8.598;2023-05-23T14:59:49;19.70;99.90
6666;DHT22;3369;49.906;8.598;2023-05-23T15:02:15;19.70;99.90
6666;DHT22;3369;49.906;8.598;2023-05-23T15:04:41;19.50;99.90
6666;DHT22;3369;49.906;8.598;2023-05-23T15:07:07;19.40;99.90
6666;DHT22;3369;49.906;8.598;2023-05-23T15:09:33;19.30;99.90
6666;DHT22;3369;49.906;8.598;2023-05-23T15:11:58;19.30;99.90
6666;DHT22;3369;49.906;8.598;2023-05-23T15:14:24;19.30;99.90
6666;DHT22;3369;49.906;8.598;2023-05-23T15:16:54;19.30;99.90
6666;DHT22;3369;49.906;8.598;2023-05-23T15:19:20;19.20;99.90
6666;DHT22;3369;49.906;8.598;2023-05-23T15:21:45;19.00;99.90
6666;DHT22;3369;49.906;8.598;2023-05-23T15:24:11;18.90;99.90
6666;DHT22;3369;49.906;8.598;2023-05-23T15:26:37;18.80;99.90
6666;DHT22;3369;49.906;8.598;2023-05-23T15:29:02;18.70;99.90
6666;DHT22;3369;49.906;8.598;2023-05-23T15:31:28;18.70;99.90
6666;DHT22;3369;49.906;8.598;2023-05-23T15:33:54;18.70;99.90
6666;DHT22;3369;49.906;8.598;2023-05-23T15:36:19;18.70;99.90
6666;DHT22;3369;49.906;8.598;2023-05-23T15:38:45;18.70;99.90
6666;DHT22;3369;49.906;8.598;2023-05-23T15:41:11;18.80;99.90
6666;DHT22;3369;49.906;8.598;2023-05-23T15:43:36;18.90;99.90
6666;DHT22;3369;49.906;8.598;2023-05-23T15:46:03;18.90;99.90
6666;DHT22;3369;49.906;8.598;2023-05-23T15:48:28;19.10;99.90
6666;DHT22;3369;49.906;8.598;2023-05-23T15:50:54;19.10;99.90
6666;DHT22;3369;49.906;8.598;2023-05-23T15:53:20;19.20;99.90
6666;DHT22;3369;49.906;8.598;2023-05-23T15:55:45;19.20;99.90
6666;DHT22;3369;49.906;8.598;2023-05-23T15:58:11;19.30;99.90
6666;DHT22;3369;49.906;8.598;2023-05-23T16:00:37;19.20;99.90
6666;DHT22;3369;49.906;8.598;2023-05-23T16:03:03;19.20;99.90
6666;DHT22;3369;49.906;8.598;2023-05-23T16:05:28;19.20;99.90
6666;DHT22;3369;49.906;8.598;2023-05-23T16:07:54;19.10;99.90
6666;DHT22;3369;49.906;8.598;2023-05-23T16:10:20;19.10;99.90
6666;DHT22;3369;49.906;8.598;2023-05-23T16:12:46;19.10;99.90
6666;DHT22;3369;49.906;8.598;2023-05-23T16:15:11;19.10;99.90
6666;DHT22;3369;49.906;8.598;2023-05-23T16:17:37;19.10;99.90
6666;DHT22;3369;49.906;8.598;2023-05-23T16:20:03;19.00;99.90
6666;DHT22;3369;49.906;8.598;2023-05-23T16:22:29;19.00;99.90
6666;DHT22;3369;49.906;8.598;2023-05-23T16:24:55;18.90;99.90
6666;DHT22;3369;49.906;8.598;2023-05-23T16:27:22;18.80;99.90
6666;DHT22;3369;49.906;8.598;2023-05-23T16:29:48;18.70;99.90
6666;DHT22;3369;49.906;8.598;2023-05-23T16:32:13;18.60;99.90
6666;DHT22;3369;49.906;8.598;2023-05-23T16:34:39;18.50;99.90
6666;DHT22;3369;49.906;8.598;2023-05-23T16:37:05;18.40;99.90
6666;DHT22;3369;49.906;8.598;2023-05-23T16:39:31;18.40;99.90
6666;DHT22;3369;49.906;8.598;2023-05-23T16:41:57;18.40;99.90
6666;DHT22;3369;49.906;8.598;2023-05-23T16:44:22;18.40;99.90
6666;DHT22;3369;49.906;8.598;2023-05-23T16:46:48;18.30;99.90
6666;DHT22;3369;49.906;8.598;2023-05-23T16:49:14;18.30;99.90
6666;DHT22;3369;49.906;8.598;2023-05-23T16:51:39;18.20;99.90
6666;DHT22;3369;49.906;8.598;2023-05-23T16:54:06;18.20;99.90
6666;DHT22;3369;49.906;8.598;2023-05-23T16:56:32;18.20;99.90
6666;DHT22;3369;49.906;8.598;2023-05-23T16:58:57;18.20;99.90
6666;DHT22;3369;49.906;8.598;2023-05-23T17:01:23;18.10;99.90
6666;DHT22;3369;49.906;8.598;2023-05-23T17:03:49;18.10;99.90
6666;DHT22;3369;49.906;8.598;2023-05-23T17:06:14;18.00;99.90
6666;DHT22;3369;49.906;8.598;2023-05-23T17:08:40;18.00;99.90
6666;DHT22;3369;49.906;8.598;2023-05-23T17:11:06;18.00;99.90
6666;DHT22;3369;49.906;8.598;2023-05-23T17:13:31;17.90;99.90
6666;DHT22;3369;49.906;8.598;2023-05-23T17:15:57;17.90;99.90